Terminal Aerodrome Forecast
Issued by NWS Sterling, VA

Current Version | Previous Version | Text Only | Print | Product List | Glossary Off
Versions: 1 2 3 4 5 6 7 8 9 10 11 12 13 14 15 16 17 18 19 20 21

000
FTUS41 KLWX 292300
TAFDCA
TAF
KDCA 292330Z 3000/3024 17003KT P6SM BKN090
     FM300800 00000KT P6SM SCT090
     FM301000 VRB03KT 3SM BR SCT090
     FM301300 VRB03KT P6SM FEW050 SCT090=

USA.gov is the U.S. government's official web portal to all federal, state and local government web resources and services.